Search for airport 
image banner adimage banner adimage banner ad
image banner ad

NV19 - Nevada Dept of Wildlife State Headquarters Heliport

Located in Reno, United States

ICAO - NV19, IATA -

Data provided by Airmate  

General information

Coordinates: N40°10'35" W118°28'53"
Elevation is 4270 feet MSL.
 
View others Airports in Nevada

Operational data

Special qualification required
Current time UTC:
Current local time:
Weather at : KLOL - Derby Field ( 14 km )
METAR: KLOL 131053Z AUTO 00000KT 10SM CLR 17/03 A2993 RMK AO2 SLP094 T01720028
View NOTAMs / SUP AIP / TFR affecting this airport [VIEW]
Communications frequencies: [VIEW]

Runways:

Airport contact information

Address: Reno United States

Satellite view of NV19